Time;durP1;ratioP1;P1;durP2;ratioP2;P2;SDS_P1;SDS_P2;PMS_P1;PMS_P2;Temp;Humidity;BMP_temperature;BMP_pressure;BME280_temperature;BME280_humidity;BME280_pressure;Samples;Min_cycle;Max_cycle;Signal;HPM_P1;HPM_P2
2022/01/23 00:00:35;;;;;;;24.98;13.48;;;-3.80;99.90;;;;;;5010847;28;19925;-74
2022/01/23 00:03:08;;;;;;;28.02;14.15;;;-3.80;99.90;;;;;;4990770;28;20135;-74
2022/01/23 00:05:39;;;;;;;29.77;15.05;;;-3.80;99.90;;;;;;5010327;28;20069;-75
2022/01/23 00:08:09;;;;;;;26.58;13.32;;;-3.80;99.90;;;;;;5011234;28;20133;-73
2022/01/23 00:10:37;;;;;;;28.13;15.07;;;-3.80;99.90;;;;;;5008620;28;20049;-72
2022/01/23 00:13:11;;;;;;;27.17;13.23;;;-3.90;99.90;;;;;;4990980;28;20042;-73
2022/01/23 00:18:24;;;;;;;30.20;15.63;;;-3.80;99.90;;;;;;5010465;28;20197;-73
2022/01/23 00:20:52;;;;;;;34.70;17.05;;;-3.80;99.90;;;;;;4999860;28;20461;-74
2022/01/23 00:23:32;;;;;;;28.65;14.55;;;-3.80;99.90;;;;;;4992946;28;20136;-74
2022/01/23 00:31:31;;;;;;;26.55;14.32;;;-3.80;99.90;;;;;;4987324;28;20079;-74
2022/01/23 00:33:59;;;;;;;27.35;14.70;;;-3.90;99.90;;;;;;5009763;28;20046;-74
2022/01/23 00:36:29;;;;;;;24.38;12.98;;;-3.90;99.90;;;;;;5010469;28;20145;-74
2022/01/23 00:38:58;;;;;;;27.38;12.40;;;-3.90;99.90;;;;;;5009797;28;20506;-72
2022/01/23 00:41:26;;;;;;;27.08;13.48;;;-4.00;99.90;;;;;;5019805;28;20064;-71
2022/01/23 00:43:54;;;;;;;26.95;12.75;;;-4.00;99.90;;;;;;5014296;28;20049;-71
2022/01/23 00:46:30;;;;;;;29.35;14.60;;;-4.00;99.90;;;;;;4997220;28;20046;-71
2022/01/23 00:51:45;;;;;;;25.50;12.68;;;-4.00;99.90;;;;;;4968690;28;20060;-70
2022/01/23 00:54:13;;;;;;;26.33;13.45;;;-4.10;99.90;;;;;;5006484;28;20057;-70
2022/01/23 00:56:41;;;;;;;25.92;13.15;;;-4.10;99.90;;;;;;5019651;28;20046;-72
2022/01/23 00:59:09;;;;;;;26.75;13.60;;;-4.10;99.90;;;;;;4994071;28;20038;-70
2022/01/23 01:01:36;;;;;;;27.33;13.38;;;-4.10;99.90;;;;;;4995590;28;20528;-69
2022/01/23 01:04:04;;;;;;;28.70;13.50;;;-4.10;99.90;;;;;;5024674;28;20590;-69
2022/01/23 01:06:32;;;;;;;26.77;14.25;;;-4.10;99.90;;;;;;5023696;28;20050;-70
2022/01/23 01:09:04;;;;;;;29.25;14.45;;;-4.00;99.90;;;;;;5010602;28;20096;-71
2022/01/23 01:14:31;;;;;;;28.88;15.60;;;-4.00;99.90;;;;;;5030045;28;20061;-73
2022/01/23 01:17:07;;;;;;;27.83;15.13;;;-4.10;99.90;;;;;;4994476;28;20406;-73
2022/01/23 01:31:05;;;;;;;22.95;13.00;;;-4.20;99.90;;;;;;4970582;28;20476;-71
2022/01/23 01:33:44;;;;;;;22.17;11.93;;;-4.20;99.90;;;;;;5028545;28;20074;-71
2022/01/23 01:36:26;;;;;;;21.90;12.77;;;-4.20;99.90;;;;;;4977874;28;20610;-70
2022/01/23 01:38:59;;;;;;;21.98;12.27;;;-4.10;99.90;;;;;;5008811;28;20586;-71
2022/01/23 01:41:27;;;;;;;22.95;12.27;;;-4.10;99.90;;;;;;5009414;28;20077;-70
2022/01/23 01:43:57;;;;;;;23.35;12.05;;;-4.00;99.90;;;;;;4990855;28;20042;-71
2022/01/23 01:46:55;;;;;;;25.38;13.18;;;-4.00;99.90;;;;;;4989280;28;20077;-70
2022/01/23 01:49:28;;;;;;;28.10;13.80;;;-4.10;99.90;;;;;;5023422;28;20046;-71
2022/01/23 01:51:59;;;;;;;34.75;15.95;;;-4.10;99.90;;;;;;4994850;28;20237;-71
2022/01/23 01:54:30;;;;;;;31.95;15.85;;;-4.10;99.90;;;;;;5012639;28;20123;-69
2022/01/23 01:57:06;;;;;;;35.50;17.30;;;-4.20;99.90;;;;;;4958226;28;20058;-70
2022/01/23 02:00:01;;;;;;;34.28;16.95;;;-4.30;99.90;;;;;;4995459;28;20064;-70
2022/01/23 02:03:07;;;;;;;43.75;18.20;;;-4.40;99.90;;;;;;5012119;28;20045;-70
2022/01/23 02:08:43;;;;;;;28.77;15.02;;;-4.40;99.90;;;;;;5021949;28;20041;-73
2022/01/23 02:11:15;;;;;;;36.03;17.15;;;-4.40;99.90;;;;;;5011852;28;20045;-73
2022/01/23 02:13:49;;;;;;;34.97;16.85;;;-4.40;99.90;;;;;;5000629;28;20053;-73
2022/01/23 02:16:55;;;;;;;37.55;16.02;;;-4.40;99.90;;;;;;5004953;28;20046;-70
2022/01/23 02:22:37;;;;;;;37.33;16.67;;;-4.40;99.90;;;;;;5002879;28;20054;-70
2022/01/23 02:50:31;;;;;;;33.10;15.88;;;-4.30;99.90;;;;;;4995629;28;20096;-69
2022/01/23 02:50:43;;;;;;;37.22;19.23;;;-4.10;99.90;;;;;;5013669;28;20057;-71
2022/01/23 02:56:01;;;;;;;39.40;18.90;;;-4.20;99.90;;;;;;4962454;28;20083;-70
2022/01/23 02:58:35;;;;;;;39.45;19.45;;;-4.20;99.90;;;;;;5009805;28;20046;-70
2022/01/23 03:01:15;;;;;;;41.33;20.33;;;-4.20;99.90;;;;;;4993822;28;20435;-70
2022/01/23 03:03:49;;;;;;;44.67;19.50;;;-4.30;99.90;;;;;;5009011;28;20562;-70
2022/01/23 03:06:54;;;;;;;42.70;19.88;;;-4.30;99.90;;;;;;5007680;28;20117;-70
2022/01/23 03:12:32;;;;;;;31.80;16.02;;;-4.30;99.90;;;;;;4985791;28;20136;-71
2022/01/23 03:15:04;;;;;;;33.25;16.13;;;-4.30;99.90;;;;;;5003295;28;20063;-71
2022/01/23 03:28:38;;;;;;;23.90;14.07;;;-4.50;99.90;;;;;;4993786;28;20119;-72
2022/01/23 03:31:19;;;;;;;26.90;13.88;;;-4.60;99.90;;;;;;5011857;28;20100;-71
2022/01/23 03:33:48;;;;;;;24.98;13.35;;;-4.60;99.90;;;;;;5010083;28;20593;-70
2022/01/23 03:36:15;;;;;;;20.08;12.85;;;-4.60;99.90;;;;;;5010295;28;20045;-73
2022/01/23 03:38:47;;;;;;;22.92;12.45;;;-4.70;99.90;;;;;;4992457;28;20255;-73
2022/01/23 03:41:15;;;;;;;24.33;13.25;;;-4.70;99.90;;;;;;5010527;28;20104;-73
2022/01/23 03:43:43;;;;;;;26.27;13.70;;;-4.70;99.90;;;;;;5010950;28;20053;-73
2022/01/23 03:46:35;;;;;;;25.90;14.65;;;-4.70;99.90;;;;;;4996735;28;20450;-73
2022/01/23 03:51:54;;;;;;;28.30;14.88;;;-4.60;99.90;;;;;;4992708;28;20105;-73
2022/01/23 03:54:23;;;;;;;27.42;13.25;;;-4.70;99.90;;;;;;5008563;28;20519;-73
2022/01/23 03:56:54;;;;;;;23.65;13.70;;;-4.70;99.90;;;;;;5024923;28;20046;-73
2022/01/23 03:59:23;;;;;;;27.15;13.30;;;-4.70;99.90;;;;;;5007955;28;20037;-73
2022/01/23 04:01:51;;;;;;;30.75;14.70;;;-4.70;99.90;;;;;;4992227;28;20052;-73
2022/01/23 04:04:36;;;;;;;26.23;13.80;;;-4.60;99.90;;;;;;4992055;28;20072;-73
2022/01/23 04:07:12;;;;;;;25.95;13.35;;;-4.60;99.90;;;;;;4991261;28;20502;-73
2022/01/23 04:09:43;;;;;;;24.48;12.70;;;-4.60;99.90;;;;;;5007960;28;20057;-73
2022/01/23 04:12:25;;;;;;;24.58;12.75;;;-4.60;99.90;;;;;;5007651;28;20073;-73
2022/01/23 04:15:09;;;;;;;22.77;12.90;;;-4.60;99.90;;;;;;4995781;28;20382;-73
2022/01/23 04:31:53;;;;;;;29.15;13.57;;;-4.80;99.90;;;;;;4975531;28;20042;-71
2022/01/23 04:34:32;;;;;;;27.40;14.13;;;-4.80;99.90;;;;;;4977383;28;20053;-70
2022/01/23 04:45:29;;;;;;;24.10;13.02;;;-4.90;99.90;;;;;;5005398;28;20085;-73
2022/01/23 05:02:05;;;;;;;26.05;13.00;;;-5.00;99.90;;;;;;4987150;28;20042;-72
2022/01/23 05:04:57;;;;;;;27.40;13.27;;;-5.20;99.90;;;;;;4991069;28;20065;-70
2022/01/23 05:07:56;;;;;;;32.40;12.88;;;-5.20;99.90;;;;;;4996191;28;20054;-69
2022/01/23 05:10:42;;;;;;;34.05;13.63;;;-5.20;99.90;;;;;;5009179;28;20100;-70
2022/01/23 05:13:26;;;;;;;;;;;-5.30;99.90;;;;;;4992240;28;20058;-70
2022/01/23 05:15:54;;;;;;;25.73;12.57;;;-5.20;99.90;;;;;;4990852;28;19980;-69
2022/01/23 05:18:22;;;;;;;31.48;14.25;;;-5.20;99.90;;;;;;4993950;28;20073;-71
2022/01/23 05:21:01;;;;;;;29.40;13.82;;;-5.20;99.90;;;;;;5008666;28;20053;-69
2022/01/23 05:23:29;;;;;;;31.58;13.10;;;-5.20;99.90;;;;;;4973366;28;20052;-74
2022/01/23 05:25:59;;;;;;;35.33;14.75;;;-5.20;99.90;;;;;;5007806;28;20050;-70
2022/01/23 05:28:26;;;;;;;31.40;14.05;;;-5.20;99.90;;;;;;5010627;28;20495;-70
2022/01/23 05:30:53;;;;;;;27.35;13.30;;;-5.30;99.90;;;;;;5027970;28;20041;-70
2022/01/23 05:33:20;;;;;;;30.63;13.70;;;-5.30;99.90;;;;;;5034025;28;20055;-70
2022/01/23 05:35:48;;;;;;;25.95;14.30;;;-5.40;99.90;;;;;;5003840;28;20123;-70
2022/01/23 05:38:18;;;;;;;32.10;14.02;;;-5.40;99.90;;;;;;4995693;28;20133;-72
2022/01/23 05:40:45;;;;;;;27.98;15.00;;;-5.40;99.90;;;;;;4979000;28;20050;-72
2022/01/23 05:43:16;;;;;;;30.02;14.15;;;-5.50;99.90;;;;;;5011983;28;20117;-72
2022/01/23 05:45:43;;;;;;;31.08;14.30;;;-5.60;99.90;;;;;;5008269;28;20126;-73
2022/01/23 05:48:30;;;;;;;31.45;16.08;;;-5.80;99.90;;;;;;5013152;28;20045;-73
2022/01/23 05:51:13;;;;;;;30.70;15.02;;;-5.90;99.90;;;;;;4975934;28;20076;-70
2022/01/23 05:54:05;;;;;;;39.83;16.40;;;-6.00;99.90;;;;;;4966420;28;20100;-72
2022/01/23 05:57:11;;;;;;;32.88;14.43;;;-6.20;99.90;;;;;;5011838;28;20611;-71
2022/01/23 05:59:55;;;;;;;31.10;15.25;;;-6.30;99.90;;;;;;4995944;28;20046;-73
2022/01/23 06:02:23;;;;;;;32.17;15.52;;;-6.40;99.90;;;;;;4996311;28;20054;-72
2022/01/23 06:04:50;;;;;;;29.73;16.33;;;-6.50;99.90;;;;;;4994008;28;20097;-73
2022/01/23 06:07:30;;;;;;;34.15;15.43;;;-6.60;99.90;;;;;;5027649;28;20053;-72
2022/01/23 06:10:05;;;;;;;33.05;15.48;;;-6.70;99.90;;;;;;4995874;28;20141;-73
2022/01/23 06:12:33;;;;;;;31.20;14.65;;;-6.80;99.90;;;;;;4994535;28;20739;-76
2022/01/23 06:15:00;;;;;;;31.65;13.55;;;-6.90;99.90;;;;;;4997614;28;20070;-77
2022/01/23 06:17:28;;;;;;;33.05;13.00;;;-7.10;99.90;;;;;;4994295;28;20050;-76
2022/01/23 06:20:22;;;;;;;;;;;-7.20;99.90;;;;;;5013838;28;20046;-77
2022/01/23 06:23:08;;;;;;;34.28;14.27;;;-7.30;99.90;;;;;;4993812;28;19929;-76
2022/01/23 06:25:56;;;;;;;30.58;11.57;;;-7.40;99.90;;;;;;5022851;28;20183;-77
2022/01/23 06:28:40;;;;;;;28.10;12.80;;;-7.40;99.90;;;;;;5010456;28;20053;-77
2022/01/23 06:31:09;;;;;;;32.10;12.65;;;-7.40;99.90;;;;;;4997852;28;20068;-81
2022/01/23 06:33:45;;;;;;;21.60;11.07;;;-7.40;99.90;;;;;;5011371;28;20042;-83
2022/01/23 06:36:16;;;;;;;21.33;11.00;;;-7.50;99.90;;;;;;4979277;28;20046;-78
2022/01/23 06:38:44;;;;;;;25.55;11.55;;;-7.50;99.90;;;;;;4992781;28;20048;-82
2022/01/23 06:41:15;;;;;;;24.88;12.48;;;-7.50;99.90;;;;;;4992783;28;20136;-81
2022/01/23 06:44:10;;;;;;;22.15;11.75;;;-7.50;99.90;;;;;;5009295;28;20057;-83
2022/01/23 06:46:45;;;;;;;23.77;10.93;;;-7.50;99.90;;;;;;5004838;28;20062;-80
2022/01/23 06:49:12;;;;;;;23.45;10.68;;;-7.50;99.90;;;;;;4975507;28;20189;-81
2022/01/23 06:51:42;;;;;;;22.73;10.55;;;-7.60;99.90;;;;;;4989552;28;20096;-81
2022/01/23 06:54:11;;;;;;;27.77;11.70;;;-7.70;99.90;;;;;;4990492;28;20382;-83
2022/01/23 06:56:41;;;;;;;30.40;12.50;;;-7.80;99.90;;;;;;4975110;28;20046;-79
2022/01/23 06:59:09;;;;;;;33.50;15.15;;;-7.70;99.90;;;;;;4977605;28;20058;-78
2022/01/23 07:01:38;;;;;;;29.67;11.88;;;-7.70;99.90;;;;;;4962909;28;20047;-77
2022/01/23 07:04:41;;;;;;;27.55;12.55;;;-7.60;99.90;;;;;;4931178;29;20056;-77
2022/01/23 07:07:29;;;;;;;28.10;12.70;;;-7.50;99.90;;;;;;4956730;28;20527;-79
2022/01/23 07:10:24;;;;;;;23.25;10.32;;;-7.70;99.90;;;;;;5003877;28;20048;-79
2022/01/23 07:13:10;;;;;;;26.08;12.82;;;-7.80;99.90;;;;;;5010043;28;20054;-79
2022/01/23 07:15:57;;;;;;;31.88;14.00;;;-7.80;99.90;;;;;;5008596;28;20048;-78
2022/01/23 07:18:54;;;;;;;29.50;13.15;;;-7.90;99.90;;;;;;4945855;28;20530;-78
2022/01/23 07:21:23;;;;;;;29.42;13.68;;;-7.90;99.90;;;;;;4993673;28;20144;-77
2022/01/23 07:23:51;;;;;;;26.67;13.82;;;-7.90;99.90;;;;;;4993812;28;20129;-77
2022/01/23 07:26:25;;;;;;;37.33;15.18;;;-7.90;99.90;;;;;;4994319;28;20143;-77
2022/01/23 07:29:01;;;;;;;27.60;13.00;;;-8.00;99.90;;;;;;5024041;28;20525;-76
2022/01/23 07:34:17;;;;;;;27.10;12.32;;;-8.00;99.90;;;;;;5010399;28;20050;-74
2022/01/23 07:36:44;;;;;;;29.02;13.98;;;-7.90;99.90;;;;;;5005331;28;20081;-72
2022/01/23 07:39:32;;;;;;;27.08;12.85;;;-7.90;99.90;;;;;;5008923;28;20100;-73
2022/01/23 07:42:06;;;;;;;;;;;-7.90;99.90;;;;;;5007745;28;20132;-73
2022/01/23 07:44:53;;;;;;;31.20;13.85;;;-8.00;99.90;;;;;;5009183;28;19925;-73
2022/01/23 07:47:43;;;;;;;31.30;12.93;;;-8.00;99.90;;;;;;5009517;28;20094;-73
2022/01/23 07:50:29;;;;;;;32.75;13.45;;;-7.80;99.90;;;;;;5009013;28;20140;-70
2022/01/23 07:53:13;;;;;;;27.95;13.52;;;-7.60;99.90;;;;;;5007481;28;20038;-70
2022/01/23 07:55:49;;;;;;;31.75;14.07;;;-7.50;99.90;;;;;;4974698;28;20054;-70
2022/01/23 07:58:36;;;;;;;31.48;14.43;;;-7.30;99.90;;;;;;4991484;28;20061;-71
2022/01/23 08:01:23;;;;;;;32.45;13.32;;;-7.30;99.90;;;;;;5009806;28;20418;-70
2022/01/23 08:04:11;;;;;;;38.97;15.30;;;-7.10;99.90;;;;;;4996633;28;20049;-70
2022/01/23 08:06:43;;;;;;;30.90;14.90;;;-7.00;99.90;;;;;;4988777;28;20050;-70
2022/01/23 08:09:40;;;;;;;36.67;15.10;;;-6.90;99.90;;;;;;4916066;28;20088;-70
2022/01/23 08:12:09;;;;;;;34.40;15.90;;;-6.90;99.90;;;;;;4987112;28;20049;-72
2022/01/23 08:14:36;;;;;;;28.58;14.07;;;-6.90;99.90;;;;;;4990218;28;20557;-72
2022/01/23 08:17:06;;;;;;;25.40;13.98;;;-6.80;99.90;;;;;;5008611;28;20049;-72
2022/01/23 08:19:33;;;;;;;33.42;14.55;;;-6.70;99.90;;;;;;5009414;28;20041;-73
2022/01/23 08:22:00;;;;;;;42.75;15.55;;;-6.60;99.90;;;;;;5008018;28;20047;-72
2022/01/23 08:24:28;;;;;;;33.53;16.25;;;-6.60;99.90;;;;;;5017588;28;20498;-72
2022/01/23 08:26:56;;;;;;;50.40;17.60;;;-6.50;99.90;;;;;;5006914;28;20050;-73
2022/01/23 08:29:24;;;;;;;32.75;14.82;;;-6.50;99.90;;;;;;5010811;28;20045;-71
2022/01/23 08:31:52;;;;;;;44.85;17.98;;;-6.50;99.90;;;;;;5019142;28;20060;-71
2022/01/23 08:34:22;;;;;;;44.30;17.98;;;-6.40;99.90;;;;;;5001646;28;20519;-74
2022/01/23 08:36:55;;;;;;;40.50;16.95;;;-6.40;99.90;;;;;;4991371;28;20054;-72
2022/01/23 08:39:25;;;;;;;44.47;18.00;;;-6.40;99.90;;;;;;5010173;28;20462;-74
2022/01/23 08:41:53;;;;;;;43.78;18.50;;;-6.30;99.90;;;;;;5009841;28;20464;-74
2022/01/23 08:44:24;;;;;;;39.95;16.67;;;-6.30;99.90;;;;;;5008879;28;20080;-75
2022/01/23 08:46:55;;;;;;;48.63;18.27;;;-6.20;99.90;;;;;;4992458;28;20148;-73
2022/01/23 08:49:28;;;;;;;40.58;17.40;;;-6.20;99.90;;;;;;4992986;28;20046;-74
2022/01/23 08:51:58;;;;;;;40.72;16.55;;;-6.20;99.90;;;;;;4992663;28;20050;-75
2022/01/23 08:54:28;;;;;;;49.20;17.40;;;-6.20;99.90;;;;;;4990880;28;20565;-76
2022/01/23 08:56:55;;;;;;;30.42;15.10;;;-6.10;99.90;;;;;;5010870;28;20402;-73
2022/01/23 08:59:24;;;;;;;35.40;14.15;;;-6.00;99.90;;;;;;4990650;28;20042;-74
2022/01/23 09:01:55;;;;;;;27.80;13.30;;;-5.90;99.90;;;;;;5004183;28;20049;-73
2022/01/23 09:04:22;;;;;;;38.25;15.82;;;-5.70;99.90;;;;;;5016324;28;20065;-73
2022/01/23 09:06:51;;;;;;;33.15;14.55;;;-5.60;99.90;;;;;;5010470;28;20046;-73
2022/01/23 09:09:19;;;;;;;28.60;12.70;;;-5.40;99.90;;;;;;5013048;28;20049;-73
2022/01/23 09:11:59;;;;;;;27.70;12.48;;;-5.40;99.90;;;;;;5014262;28;20046;-72
2022/01/23 09:14:28;;;;;;;24.45;10.82;;;-5.40;99.90;;;;;;5015506;28;20098;-74
2022/01/23 09:16:56;;;;;;;23.45;10.35;;;-5.30;99.90;;;;;;4991752;28;20057;-75
2022/01/23 09:19:26;;;;;;;17.20;9.05;;;-5.30;99.90;;;;;;5012936;28;20317;-76
2022/01/23 09:21:56;;;;;;;16.65;9.77;;;-5.30;99.90;;;;;;5011914;28;20097;-76
2022/01/23 09:24:27;;;;;;;15.55;8.70;;;-5.40;99.90;;;;;;5013666;28;20525;-75
2022/01/23 09:27:02;;;;;;;19.52;9.55;;;-5.40;99.90;;;;;;4995470;28;20077;-73
2022/01/23 09:29:35;;;;;;;16.02;9.30;;;-5.50;99.90;;;;;;5012445;28;20126;-72
2022/01/23 09:32:05;;;;;;;17.65;8.70;;;-5.50;99.90;;;;;;5009135;28;20215;-74
2022/01/23 09:34:34;;;;;;;17.23;9.52;;;-5.40;99.90;;;;;;5004418;28;20054;-73
2022/01/23 09:37:06;;;;;;;21.83;9.98;;;-5.30;99.90;;;;;;5012067;28;20136;-73
2022/01/23 09:39:34;;;;;;;17.98;9.70;;;-5.20;99.90;;;;;;4993731;28;20082;-78
2022/01/23 09:42:09;;;;;;;21.95;10.02;;;-5.20;99.90;;;;;;5011545;28;20127;-77
2022/01/23 09:44:43;;;;;;;17.67;9.80;;;-5.10;99.90;;;;;;5012520;28;20054;-78
2022/01/23 09:47:13;;;;;;;21.60;9.73;;;-5.00;99.90;;;;;;4995735;28;20060;-77
2022/01/23 09:49:42;;;;;;;15.68;8.60;;;-4.90;99.90;;;;;;4993428;28;20085;-75
2022/01/23 09:52:13;;;;;;;19.65;10.38;;;-5.00;99.90;;;;;;4995472;28;20045;-73
2022/01/23 09:54:44;;;;;;;20.10;9.13;;;-5.10;99.90;;;;;;4991188;28;20141;-71
2022/01/23 09:57:14;;;;;;;20.40;9.10;;;-5.20;99.90;;;;;;4979529;28;20093;-73
2022/01/23 09:59:41;;;;;;;16.17;7.97;;;-5.40;99.90;;;;;;5005612;28;20057;-77
2022/01/23 10:02:09;;;;;;;16.15;8.40;;;-5.50;99.90;;;;;;4995703;28;20049;-73
2022/01/23 10:04:37;;;;;;;15.35;8.13;;;-5.60;99.90;;;;;;4992123;28;20050;-74
2022/01/23 10:07:07;;;;;;;16.17;8.48;;;-5.60;99.90;;;;;;5011499;28;20077;-74
2022/01/23 10:09:37;;;;;;;16.88;8.23;;;-5.60;99.90;;;;;;5008604;28;20525;-72
2022/01/23 10:12:06;;;;;;;15.52;7.93;;;-5.50;99.90;;;;;;5007492;28;20042;-75
2022/01/23 10:14:36;;;;;;;13.27;7.45;;;-5.40;99.90;;;;;;4991156;28;20041;-75
2022/01/23 10:17:06;;;;;;;20.27;8.50;;;-5.40;99.90;;;;;;4992781;28;20057;-76
2022/01/23 10:19:34;;;;;;;14.57;8.57;;;-5.40;99.90;;;;;;4994452;28;20526;-79
2022/01/23 10:22:05;;;;;;;17.10;9.38;;;-5.40;99.90;;;;;;5010098;28;20140;-76
2022/01/23 10:24:33;;;;;;;17.02;8.13;;;-5.50;99.90;;;;;;5010861;28;20058;-73
2022/01/23 10:27:01;;;;;;;15.48;7.82;;;-5.60;99.90;;;;;;5010950;28;20129;-77
2022/01/23 10:29:34;;;;;;;14.35;8.80;;;-5.60;99.90;;;;;;5008521;28;20053;-75
2022/01/23 10:32:10;;;;;;;18.83;9.05;;;-5.60;99.90;;;;;;4991966;28;20076;-75
2022/01/23 10:34:51;;;;;;;14.35;7.32;;;-5.50;99.90;;;;;;5010175;28;20141;-74
2022/01/23 10:37:29;;;;;;;19.23;9.75;;;-5.60;99.90;;;;;;5008202;28;20045;-73
2022/01/23 10:39:59;;;;;;;16.60;9.43;;;-5.60;99.90;;;;;;5007971;28;20073;-76
2022/01/23 10:48:40;;;;;;;19.13;8.63;;;-5.50;99.90;;;;;;5000446;28;20049;-77
2022/01/23 10:51:28;;;;;;;14.70;8.57;;;-5.40;99.90;;;;;;4988636;28;20054;-77
2022/01/23 10:54:16;;;;;;;14.52;9.43;;;-5.20;99.90;;;;;;4992915;28;20120;-77
2022/01/23 10:57:03;;;;;;;19.23;9.18;;;-5.20;99.90;;;;;;4992727;28;20108;-76
2022/01/23 10:59:46;;;;;;;18.23;9.70;;;-5.10;99.90;;;;;;4994292;28;20046;-74
2022/01/23 11:02:18;;;;;;;20.25;9.85;;;-5.20;99.90;;;;;;5012622;28;20053;-76
2022/01/23 11:05:11;;;;;;;18.23;9.48;;;-5.20;99.90;;;;;;4991947;28;20550;-76
2022/01/23 11:07:42;;;;;;;17.75;9.82;;;-5.20;99.90;;;;;;4988635;28;20050;-77
2022/01/23 11:10:14;;;;;;;20.08;9.38;;;-5.10;99.90;;;;;;4993726;28;20069;-76
2022/01/23 11:17:21;;;;;;;25.98;10.25;;;-5.10;99.90;;;;;;4991552;28;20108;-75
2022/01/23 11:18:36;;;;;;;20.90;9.70;;;-5.20;99.90;;;;;;4976578;28;20184;-77
2022/01/23 11:21:20;;;;;;;20.15;9.77;;;-5.20;99.90;;;;;;5011440;28;20049;-78
2022/01/23 11:23:56;;;;;;;20.15;10.38;;;-5.30;99.90;;;;;;5007258;28;20069;-77
2022/01/23 11:26:28;;;;;;;21.15;10.05;;;-5.30;99.90;;;;;;5024022;28;20104;-78
2022/01/23 11:28:56;;;;;;;18.13;9.35;;;-5.30;99.90;;;;;;4989422;28;20054;-77
2022/01/23 11:31:25;;;;;;;22.83;11.15;;;-5.30;99.90;;;;;;4995752;28;20133;-78
2022/01/23 11:33:54;;;;;;;23.35;10.27;;;-5.30;99.90;;;;;;5009063;28;20081;-77
2022/01/23 11:36:22;;;;;;;23.98;10.65;;;-5.30;99.90;;;;;;5010625;28;20537;-79
2022/01/23 11:38:53;;;;;;;17.35;10.32;;;-5.20;99.90;;;;;;5004252;28;20426;-77
2022/01/23 11:55:38;;;;;;;23.10;10.05;;;-5.20;99.90;;;;;;5009978;28;20163;-73
2022/01/23 11:58:07;;;;;;;23.83;10.55;;;-5.10;99.90;;;;;;4987375;28;20050;-73
2022/01/23 12:00:39;;;;;;;23.10;11.20;;;-5.00;99.90;;;;;;5007476;28;20061;-72
2022/01/23 12:03:13;;;;;;;22.33;10.87;;;-5.00;99.90;;;;;;4990616;28;20046;-74
2022/01/23 12:05:43;;;;;;;20.67;10.35;;;-5.00;99.90;;;;;;4977600;28;20042;-73
2022/01/23 12:08:36;;;;;;;20.92;10.45;;;-4.90;99.90;;;;;;5024276;28;20502;-75
2022/01/23 12:11:42;;;;;;;26.92;12.13;;;-4.90;99.90;;;;;;5009738;28;20125;-72
2022/01/23 12:17:12;;;;;;;21.27;10.95;;;-5.00;99.90;;;;;;4978087;28;20054;-72
2022/01/23 12:19:50;;;;;;;29.98;11.73;;;-5.00;99.90;;;;;;4989707;28;20133;-76
2022/01/23 12:22:45;;;;;;;25.33;11.20;;;-5.00;99.90;;;;;;5007469;28;20049;-76
2022/01/23 12:25:28;;;;;;;25.00;12.23;;;-5.00;99.90;;;;;;5013530;28;20237;-76
2022/01/23 12:28:21;;;;;;;20.75;11.02;;;-5.00;99.90;;;;;;5001800;28;20080;-74
2022/01/23 12:30:53;;;;;;;22.88;11.57;;;-4.90;99.90;;;;;;4981777;28;20049;-77
2022/01/23 12:33:46;;;;;;;28.77;12.05;;;-4.90;99.90;;;;;;4976577;28;20045;-76
2022/01/23 12:36:26;;;;;;;23.02;11.32;;;-4.80;99.90;;;;;;5009319;28;20136;-75
2022/01/23 12:38:57;;;;;;;26.15;12.32;;;-4.80;99.90;;;;;;5007635;28;20045;-76
2022/01/23 12:41:32;;;;;;;29.75;12.52;;;-4.80;99.90;;;;;;4992575;28;20140;-75
2022/01/23 12:44:04;;;;;;;27.70;13.07;;;-4.80;99.90;;;;;;4986605;28;20455;-76
2022/01/23 12:46:39;;;;;;;24.13;11.75;;;-4.70;99.90;;;;;;4970859;28;20069;-76
2022/01/23 12:49:33;;;;;;;22.80;13.50;;;-4.70;99.90;;;;;;4999255;28;20100;-75
2022/01/23 12:52:20;;;;;;;30.83;12.48;;;-4.60;99.90;;;;;;4994590;28;20049;-77
2022/01/23 12:54:56;;;;;;;26.48;11.82;;;-4.60;99.90;;;;;;4988760;28;20042;-77
2022/01/23 12:57:35;;;;;;;24.55;12.27;;;-4.60;99.90;;;;;;5008404;28;20588;-76
2022/01/23 13:00:10;;;;;;;27.67;11.57;;;-4.60;99.90;;;;;;5005533;28;20058;-76
2022/01/23 13:02:45;;;;;;;28.80;11.88;;;-4.50;99.90;;;;;;4990551;28;20085;-79
2022/01/23 13:05:15;;;;;;;26.45;12.38;;;-4.50;99.90;;;;;;5007472;28;20060;-77
2022/01/23 13:08:01;;;;;;;24.67;13.70;;;-4.40;99.90;;;;;;5008447;28;20551;-75
2022/01/23 13:10:51;;;;;;;28.77;13.23;;;-4.40;99.90;;;;;;5009925;28;20053;-77
2022/01/23 13:13:34;;;;;;;26.85;13.25;;;-4.30;99.90;;;;;;4975984;28;20045;-78
2022/01/23 13:16:21;;;;;;;23.42;12.32;;;-4.30;99.90;;;;;;5007981;28;20525;-79
2022/01/23 13:19:21;;;;;;;24.88;12.25;;;-4.20;99.90;;;;;;4974929;28;20057;-79
2022/01/23 13:28:14;;;;;;;27.63;13.20;;;-4.10;99.90;;;;;;4992817;28;20046;-80
2022/01/23 13:30:32;;;;;;;26.95;12.48;;;-4.10;99.90;;;;;;5003055;28;20112;-78
2022/01/23 13:33:03;;;;;;;29.75;13.60;;;-4.10;99.90;;;;;;5007947;28;20050;-78
2022/01/23 13:35:38;;;;;;;30.27;13.88;;;-4.00;99.90;;;;;;5008976;28;20053;-80
2022/01/23 13:38:10;;;;;;;24.42;12.00;;;-4.00;99.90;;;;;;5008535;28;20530;-78
2022/01/23 13:40:43;;;;;;;26.70;13.00;;;-4.00;99.90;;;;;;5008719;28;20428;-77
2022/01/23 13:51:44;;;;;;;28.98;14.63;;;-3.80;99.90;;;;;;5010039;28;20057;-78
2022/01/23 13:59:57;;;;;;;26.90;12.73;;;-3.70;99.90;;;;;;4972845;28;20387;-75
2022/01/23 14:02:27;;;;;;;27.20;13.82;;;-3.70;99.90;;;;;;5010586;28;20069;-74
2022/01/23 14:05:06;;;;;;;28.65;13.18;;;-3.60;99.90;;;;;;5012938;28;20057;-75
2022/01/23 14:07:34;;;;;;;39.78;14.10;;;-3.60;99.90;;;;;;5012606;28;20058;-76
2022/01/23 14:10:14;;;;;;;27.48;12.95;;;-3.50;99.90;;;;;;4990849;28;20628;-74
2022/01/23 14:12:44;;;;;;;28.02;13.77;;;-3.50;99.90;;;;;;5007064;28;20081;-74
2022/01/23 14:15:16;;;;;;;27.27;12.73;;;-3.40;99.90;;;;;;5011290;28;20054;-74
2022/01/23 14:17:56;;;;;;;27.03;13.03;;;-3.50;99.90;;;;;;5011909;28;20463;-74
2022/01/23 14:20:24;;;;;;;24.98;12.45;;;-3.40;99.90;;;;;;5005724;28;20549;-75
2022/01/23 14:22:53;;;;;;;23.95;12.55;;;-3.30;99.90;;;;;;4975382;28;20053;-74
2022/01/23 14:25:23;;;;;;;29.30;13.18;;;-3.40;99.90;;;;;;5011978;28;20132;-75
2022/01/23 14:28:07;;;;;;;26.95;12.93;;;-3.40;99.90;;;;;;5009357;28;20042;-73
2022/01/23 14:30:42;;;;;;;26.40;13.23;;;-3.50;99.90;;;;;;5004338;28;20050;-78
2022/01/23 14:33:17;;;;;;;27.38;13.38;;;-3.50;99.90;;;;;;5009263;28;20418;-80
2022/01/23 14:35:47;;;;;;;21.30;11.85;;;-3.50;99.90;;;;;;4977975;28;20439;-80
2022/01/23 14:38:17;;;;;;;23.50;12.30;;;-3.50;99.90;;;;;;5009183;28;20038;-76
2022/01/23 14:41:01;;;;;;;22.90;12.10;;;-3.40;99.90;;;;;;5011937;28;20050;-80
2022/01/23 14:43:38;;;;;;;19.35;11.32;;;-3.40;99.90;;;;;;5012332;28;20085;-81
2022/01/23 14:46:07;;;;;;;22.80;11.93;;;-3.40;99.90;;;;;;4977102;28;20042;-81
2022/01/23 14:48:39;;;;;;;29.70;10.85;;;-3.40;99.90;;;;;;5010294;28;20049;-80
2022/01/23 14:51:08;;;;;;;21.15;10.38;;;-3.40;99.90;;;;;;5024281;28;20624;-78
2022/01/23 14:53:39;;;;;;;20.08;9.13;;;-3.40;99.90;;;;;;4988680;28;20088;-81
2022/01/23 14:56:12;;;;;;;24.58;11.38;;;-3.40;99.90;;;;;;5023772;28;20049;-79
2022/01/23 14:58:43;;;;;;;;;;;-3.40;99.90;;;;;;5001399;28;20068;-80
2022/01/23 15:01:13;;;;;;;21.85;11.38;;;-3.40;99.90;;;;;;5010550;28;19936;-81
2022/01/23 15:03:48;;;;;;;22.98;11.15;;;-3.40;99.90;;;;;;4993865;28;20045;-80
2022/01/23 15:06:16;;;;;;;17.55;9.43;;;-3.50;99.90;;;;;;5005332;28;20623;-79
2022/01/23 15:08:47;;;;;;;19.73;11.27;;;-3.60;99.90;;;;;;5011252;28;20046;-81
2022/01/23 15:11:18;;;;;;;19.50;10.57;;;-3.70;99.90;;;;;;5010214;28;20512;-81
2022/01/23 15:13:47;;;;;;;20.75;10.05;;;-3.70;99.90;;;;;;5009941;28;20053;-79
2022/01/23 15:16:15;;;;;;;22.25;11.02;;;-3.70;99.90;;;;;;4993813;28;20041;-83
2022/01/23 15:18:42;;;;;;;24.40;11.25;;;-3.70;99.90;;;;;;5011922;28;20100;-82
2022/01/23 15:21:10;;;;;;;20.48;10.65;;;-3.70;99.90;;;;;;5009753;28;20120;-86
2022/01/23 15:23:42;;;;;;;21.83;10.23;;;-3.80;99.90;;;;;;5007510;28;20092;-80
2022/01/23 15:26:10;;;;;;;21.85;11.50;;;-3.80;99.90;;;;;;5007857;28;20060;-76
2022/01/23 15:28:38;;;;;;;25.17;11.20;;;-3.90;99.90;;;;;;4992617;28;20054;-77
2022/01/23 15:31:07;;;;;;;26.45;10.93;;;-3.80;99.90;;;;;;5011907;28;20050;-76
2022/01/23 15:33:34;;;;;;;18.95;10.10;;;-3.80;99.90;;;;;;5006697;28;20407;-75
2022/01/23 15:36:02;;;;;;;24.25;11.35;;;-3.80;99.90;;;;;;5009638;28;20613;-74
2022/01/23 15:38:30;;;;;;;21.73;11.15;;;-3.80;99.90;;;;;;4992339;28;20549;-76
2022/01/23 15:40:57;;;;;;;23.63;12.45;;;-3.90;99.90;;;;;;5010447;28;20423;-76
2022/01/23 15:43:25;;;;;;;20.55;9.95;;;-3.80;99.90;;;;;;5006040;28;20426;-74
2022/01/23 15:45:54;;;;;;;24.42;12.13;;;-3.80;99.90;;;;;;4995989;28;20137;-77
2022/01/23 15:48:24;;;;;;;27.05;13.60;;;-3.80;99.90;;;;;;4977820;28;20081;-75